createdAt,value
2018-09-26T00:00:48.481Z,61.22
2018-09-26T00:01:48.495Z,61.32
2018-09-26T00:02:48.500Z,61.61
2018-09-26T00:03:48.674Z,60.62
2018-09-26T00:04:48.536Z,61.52
2018-09-26T00:05:48.555Z,61.13
2018-09-26T00:06:48.557Z,61.13
2018-09-26T00:07:48.582Z,61.32
2018-09-26T00:08:48.596Z,61.22
2018-09-26T00:09:48.707Z,61.32
2018-09-26T00:10:48.635Z,61.32
2018-09-26T00:11:48.648Z,61.13
2018-09-26T00:12:48.659Z,60.94
2018-09-26T00:13:48.671Z,61.22
2018-09-26T00:14:48.791Z,62.00
2018-09-26T00:15:48.708Z,61.90
2018-09-26T00:16:48.713Z,61.42
2018-09-26T00:17:48.726Z,61.71
2018-09-26T00:18:48.809Z,61.52
2018-09-26T00:19:48.944Z,61.80
2018-09-26T00:20:48.787Z,61.42
2018-09-26T00:21:48.808Z,61.32
2018-09-26T00:22:48.806Z,61.22
2018-09-26T00:23:48.825Z,61.61
2018-09-26T00:24:48.981Z,61.61
2018-09-26T00:25:48.853Z,61.49
2018-09-26T00:26:48.861Z,61.80
2018-09-26T00:27:48.888Z,62.19
2018-09-26T00:28:48.887Z,62.09
2018-09-26T00:29:49.075Z,61.68
2018-09-26T00:30:48.920Z,62.00
2018-09-26T00:31:48.952Z,61.71
2018-09-26T00:32:48.969Z,61.22
2018-09-26T00:33:48.981Z,60.36
2018-09-26T00:34:49.137Z,60.27
2018-09-26T00:35:49.122Z,60.27
2018-09-26T00:36:49.022Z,60.36
2018-09-26T00:37:49.039Z,60.27
2018-09-26T00:38:49.056Z,60.17
2018-09-26T00:39:49.156Z,60.55
2018-09-26T00:40:49.074Z,60.27
2018-09-26T00:41:49.089Z,60.27
2018-09-26T00:42:49.114Z,60.46
2018-09-26T00:43:49.128Z,61.04
2018-09-26T00:44:49.259Z,61.52
2018-09-26T00:45:49.153Z,61.13
2018-09-26T00:46:49.166Z,61.80
2018-09-26T00:47:49.182Z,61.52
2018-09-26T00:48:49.196Z,62.38
2018-09-26T00:49:49.369Z,62.45
2018-09-26T00:50:49.237Z,62.64
2018-09-26T00:51:49.245Z,63.41
2018-09-26T00:52:49.257Z,63.51
2018-09-26T00:53:49.379Z,64.37
2018-09-26T00:54:49.434Z,64.08
2018-09-26T00:55:49.295Z,64.86
2018-09-26T00:56:49.307Z,65.24
2018-09-26T00:57:49.334Z,64.86
2018-09-26T00:58:49.351Z,65.24
2018-09-26T00:59:49.511Z,65.24
2018-09-26T01:00:49.374Z,66.20
2018-09-26T01:01:49.403Z,66.20
2018-09-26T01:02:49.419Z,66.10
2018-09-26T01:03:49.421Z,66.46
2018-09-26T01:04:49.541Z,66.74
2018-09-26T01:05:49.459Z,66.55
2018-09-26T01:06:49.471Z,66.94
2018-09-26T01:07:49.491Z,67.32
2018-09-26T01:08:49.497Z,67.51
2018-09-26T01:09:49.671Z,67.99
2018-09-26T01:10:49.538Z,68.48
2018-09-26T01:11:49.548Z,68.19
2018-09-26T01:12:49.561Z,68.57
2018-09-26T01:13:49.587Z,68.48
2018-09-26T01:14:49.595Z,68.38
2018-09-26T01:15:49.852Z,68.57
2018-09-26T01:16:49.626Z,68.19
2018-09-26T01:17:49.645Z,68.38
2018-09-26T01:18:49.646Z,67.99
2018-09-26T01:19:49.668Z,67.42
2018-09-26T01:20:49.770Z,66.84
2018-09-26T01:21:49.687Z,67.13
2018-09-26T01:22:49.711Z,66.46
2018-09-26T01:23:49.728Z,66.27
2018-09-26T01:24:49.746Z,65.78
2018-09-26T01:25:49.860Z,65.40
2018-09-26T01:26:49.761Z,65.20
2018-09-26T01:27:49.779Z,65.11
2018-09-26T01:28:49.803Z,65.40
2018-09-26T01:29:49.820Z,64.25
2018-09-26T01:30:49.926Z,64.25
2018-09-26T01:31:49.835Z,63.57
2018-09-26T01:32:49.862Z,63.09
2018-09-26T01:33:49.878Z,63.57
2018-09-26T01:34:49.883Z,63.67
2018-09-26T01:35:50.051Z,63.38
2018-09-26T01:36:49.912Z,63.57
2018-09-26T01:37:49.938Z,63.02
2018-09-26T01:38:49.941Z,62.45
2018-09-26T01:39:49.967Z,62.54
2018-09-26T01:40:50.078Z,62.26
2018-09-26T01:41:49.997Z,62.45
2018-09-26T01:42:50.009Z,62.41
2018-09-26T01:43:50.009Z,62.06
2018-09-26T01:44:50.041Z,62.32
2018-09-26T01:45:50.147Z,61.97
2018-09-26T01:46:50.063Z,62.32
2018-09-26T01:47:50.085Z,62.35
2018-09-26T01:48:50.094Z,62.03
2018-09-26T01:49:50.131Z,61.39
2018-09-26T01:50:50.268Z,61.74
2018-09-26T01:51:50.131Z,61.39
2018-09-26T01:52:50.160Z,61.16
2018-09-26T01:53:50.221Z,61.68
2018-09-26T01:54:50.195Z,61.55
2018-09-26T01:55:50.302Z,61.87
2018-09-26T01:56:50.214Z,61.29
2018-09-26T01:57:50.230Z,61.55
2018-09-26T01:58:50.238Z,61.10
2018-09-26T01:59:50.263Z,61.68
2018-09-26T02:00:50.429Z,61.26
2018-09-26T02:01:50.288Z,61.94
2018-09-26T02:02:50.297Z,61.65
2018-09-26T02:03:50.313Z,61.55
2018-09-26T02:04:50.328Z,61.55
2018-09-26T02:05:50.489Z,61.74
2018-09-26T02:06:50.368Z,61.65
2018-09-26T02:07:50.383Z,61.65
2018-09-26T02:08:50.402Z,62.06
2018-09-26T02:09:50.411Z,61.84
2018-09-26T02:10:51.090Z,61.16
2018-09-26T02:11:50.429Z,61.55
2018-09-26T02:12:50.470Z,61.46
2018-09-26T02:13:50.460Z,61.65
2018-09-26T02:14:50.482Z,60.88
2018-09-26T02:15:50.640Z,61.46
2018-09-26T02:16:50.497Z,60.97
2018-09-26T02:17:50.533Z,60.97
2018-09-26T02:18:50.534Z,60.78
2018-09-26T02:19:50.558Z,60.69
2018-09-26T02:20:50.573Z,60.39
2018-09-26T02:21:50.720Z,60.21
2018-09-26T02:22:50.589Z,60.24
2018-09-26T02:23:50.619Z,60.39
2018-09-26T02:24:50.625Z,60.21
2018-09-26T02:25:50.644Z,60.24
2018-09-26T02:26:50.902Z,60.04
2018-09-26T02:27:50.665Z,59.94
2018-09-26T02:28:50.691Z,60.01
2018-09-26T02:29:50.707Z,59.72
2018-09-26T02:30:50.717Z,60.01
2018-09-26T02:31:50.870Z,59.75
2018-09-26T02:32:50.735Z,59.47
2018-09-26T02:33:50.749Z,59.63
2018-09-26T02:34:50.761Z,59.63
2018-09-26T02:35:50.793Z,59.85
2018-09-26T02:36:50.896Z,59.37
2018-09-26T02:37:50.831Z,59.37
2018-09-26T02:38:50.834Z,59.05
2018-09-26T02:39:50.842Z,59.27
2018-09-26T02:40:50.866Z,59.15
2018-09-26T02:41:50.975Z,59.37
2018-09-26T02:42:50.882Z,59.08
2018-09-26T02:43:50.910Z,58.89
2018-09-26T02:44:50.919Z,59.08
2018-09-26T02:45:50.942Z,59.15
2018-09-26T02:46:51.104Z,59.05
2018-09-26T02:47:50.957Z,59.08
2018-09-26T02:48:50.969Z,59.08
2018-09-26T02:49:51.000Z,58.70
2018-09-26T02:50:51.013Z,58.60
2018-09-26T02:51:51.175Z,58.79
2018-09-26T02:52:51.026Z,58.60
2018-09-26T02:53:51.046Z,58.50
2018-09-26T02:54:51.070Z,57.35
2018-09-26T02:55:51.196Z,57.73
2018-09-26T02:56:51.255Z,58.37
2018-09-26T02:57:51.104Z,58.22
2018-09-26T02:58:51.655Z,57.22
2018-09-26T02:59:51.150Z,56.74
2018-09-26T03:00:51.160Z,57.03
2018-09-26T03:01:51.270Z,56.84
2018-09-26T03:02:51.191Z,57.32
2018-09-26T03:03:51.191Z,57.22
2018-09-26T03:04:51.215Z,56.74
2018-09-26T03:05:51.233Z,57.51
2018-09-26T03:06:51.391Z,57.13
2018-09-26T03:07:51.261Z,57.32
2018-09-26T03:08:51.277Z,56.84
2018-09-26T03:09:51.295Z,56.45
2018-09-26T03:10:51.373Z,56.16
2018-09-26T03:11:51.470Z,56.65
2018-09-26T03:12:51.330Z,56.93
2018-09-26T03:13:51.335Z,56.65
2018-09-26T03:14:51.361Z,56.55
2018-09-26T03:15:51.374Z,56.36
2018-09-26T03:16:51.490Z,56.55
2018-09-26T03:17:51.406Z,56.16
2018-09-26T03:18:51.434Z,56.65
2018-09-26T03:19:51.426Z,56.07
2018-09-26T03:20:51.455Z,56.16
2018-09-26T03:21:51.567Z,56.26
2018-09-26T03:22:51.469Z,55.98
2018-09-26T03:23:51.498Z,55.49
2018-09-26T03:24:51.503Z,55.98
2018-09-26T03:25:51.519Z,55.71
2018-09-26T03:26:51.680Z,55.20
2018-09-26T03:27:51.546Z,55.33
2018-09-26T03:28:51.573Z,54.56
2018-09-26T03:29:51.577Z,55.13
2018-09-26T03:30:51.603Z,55.04
2018-09-26T03:31:51.713Z,54.85
2018-09-26T03:32:51.634Z,54.94
2018-09-26T03:33:51.745Z,54.75
2018-09-26T03:34:51.648Z,54.75
2018-09-26T03:35:51.665Z,54.75
2018-09-26T03:36:51.831Z,54.85
2018-09-26T03:37:51.691Z,54.75
2018-09-26T03:38:51.730Z,54.75
2018-09-26T03:39:51.722Z,55.13
2018-09-26T03:40:51.779Z,54.94
2018-09-26T03:41:51.864Z,54.85
2018-09-26T03:42:51.778Z,54.56
2018-09-26T03:43:51.782Z,54.17
2018-09-26T03:44:51.807Z,54.65
2018-09-26T03:45:51.825Z,54.65
2018-09-26T03:46:51.986Z,54.85
2018-09-26T03:47:51.849Z,54.65
2018-09-26T03:48:51.857Z,54.94
2018-09-26T03:49:51.877Z,54.91
2018-09-26T03:50:51.899Z,55.01
2018-09-26T03:51:52.011Z,55.40
2018-09-26T03:52:51.917Z,55.59
2018-09-26T03:53:51.959Z,55.01
2018-09-26T03:54:51.947Z,54.63
2018-09-26T03:55:51.964Z,54.63
2018-09-26T03:56:52.232Z,54.63
2018-09-26T03:57:51.992Z,54.91
2018-09-26T03:58:52.012Z,55.30
2018-09-26T03:59:52.044Z,55.11
2018-09-26T04:00:52.044Z,55.49
2018-09-26T04:01:52.210Z,54.72
2018-09-26T04:02:52.078Z,55.30
2018-09-26T04:03:52.080Z,55.20
2018-09-26T04:04:52.137Z,55.78
2018-09-26T04:05:52.110Z,55.68
2018-09-26T04:06:52.221Z,55.49
2018-09-26T04:07:52.147Z,55.40
2018-09-26T04:08:52.159Z,55.59
2018-09-26T04:09:52.169Z,55.59
2018-09-26T04:10:52.196Z,55.59
2018-09-26T04:11:52.358Z,55.78
2018-09-26T04:12:52.419Z,55.40
2018-09-26T04:13:52.222Z,55.40
2018-09-26T04:14:52.254Z,55.98
2018-09-26T04:15:52.272Z,55.68
2018-09-26T04:16:52.382Z,56.07
2018-09-26T04:17:52.293Z,56.36
2018-09-26T04:18:52.313Z,56.65
2018-09-26T04:19:52.324Z,56.93
2018-09-26T04:20:52.343Z,56.14
2018-09-26T04:21:52.496Z,56.62
2018-09-26T04:22:52.372Z,56.36
2018-09-26T04:23:52.397Z,56.43
2018-09-26T04:24:52.397Z,56.62
2018-09-26T04:25:52.410Z,56.74
2018-09-26T04:26:52.838Z,56.36
2018-09-26T04:27:52.442Z,55.88
2018-09-26T04:28:52.454Z,55.98
2018-09-26T04:29:52.467Z,56.36
2018-09-26T04:30:52.526Z,55.88
2018-09-26T04:31:52.486Z,55.40
2018-09-26T04:32:52.712Z,55.68
2018-09-26T04:33:52.557Z,55.78
2018-09-26T04:34:52.534Z,55.59
2018-09-26T04:35:52.564Z,55.78
2018-09-26T04:36:52.572Z,54.91
2018-09-26T04:37:52.591Z,54.63
2018-09-26T04:38:52.837Z,54.91
2018-09-26T04:39:52.617Z,54.91
2018-09-26T04:40:52.632Z,55.01
2018-09-26T04:41:52.648Z,54.91
2018-09-26T04:42:52.658Z,55.01
2018-09-26T04:43:52.773Z,54.82
2018-09-26T04:44:52.687Z,54.91
2018-09-26T04:45:52.705Z,54.91
2018-09-26T04:46:52.717Z,55.01
2018-09-26T04:47:52.725Z,54.82
2018-09-26T04:48:52.851Z,54.63
2018-09-26T04:49:52.758Z,55.68
2018-09-26T04:50:52.840Z,55.20
2018-09-26T04:51:52.790Z,55.30
2018-09-26T04:52:52.806Z,55.20
2018-09-26T04:53:53.059Z,55.49
2018-09-26T04:54:52.843Z,55.01
2018-09-26T04:55:52.841Z,55.59
2018-09-26T04:56:52.854Z,55.11
2018-09-26T04:57:52.919Z,54.63
2018-09-26T04:58:53.144Z,54.82
2018-09-26T04:59:52.898Z,54.63
2018-09-26T05:00:52.930Z,54.91
2018-09-26T05:01:52.942Z,54.91
2018-09-26T05:02:52.942Z,54.72
2018-09-26T05:03:53.068Z,55.20
2018-09-26T05:04:52.969Z,54.63
2018-09-26T05:05:52.999Z,54.91
2018-09-26T05:06:53.001Z,54.82
2018-09-26T05:07:53.030Z,55.01
2018-09-26T05:08:53.315Z,55.40
2018-09-26T05:09:53.052Z,55.30
2018-09-26T05:10:53.070Z,55.01
2018-09-26T05:11:53.084Z,55.01
2018-09-26T05:12:53.086Z,54.91
2018-09-26T05:13:53.372Z,54.63
2018-09-26T05:14:53.205Z,55.01
2018-09-26T05:15:53.148Z,55.40
2018-09-26T05:16:53.161Z,55.49
2018-09-26T05:17:53.177Z,55.40
2018-09-26T05:18:53.280Z,55.68
2018-09-26T05:19:53.207Z,55.49
2018-09-26T05:20:53.203Z,55.59
2018-09-26T05:21:53.221Z,55.98
2018-09-26T05:22:53.339Z,55.59
2018-09-26T05:23:53.353Z,55.40
2018-09-26T05:24:53.268Z,55.40
2018-09-26T05:25:53.292Z,55.40
2018-09-26T05:26:53.306Z,55.30
2018-09-26T05:27:53.308Z,55.49
2018-09-26T05:28:53.427Z,55.40
2018-09-26T05:29:53.358Z,55.78
2018-09-26T05:30:53.365Z,55.49
2018-09-26T05:31:53.367Z,55.59
2018-09-26T05:32:53.395Z,55.59
2018-09-26T05:33:53.545Z,55.59
2018-09-26T05:34:53.413Z,55.49
2018-09-26T05:35:53.426Z,55.30
2018-09-26T05:36:53.451Z,55.40
2018-09-26T05:37:53.457Z,55.59
2018-09-26T05:38:53.480Z,55.98
2018-09-26T05:39:53.596Z,55.59
2018-09-26T05:40:53.500Z,55.88
2018-09-26T05:41:53.527Z,55.98
2018-09-26T05:42:53.544Z,55.88
2018-09-26T05:43:53.556Z,56.23
2018-09-26T05:44:53.570Z,56.74
2018-09-26T05:45:53.697Z,56.45
2018-09-26T05:46:53.602Z,56.74
2018-09-26T05:47:53.616Z,56.16
2018-09-26T05:48:53.622Z,56.55
2018-09-26T05:49:53.645Z,56.36
2018-09-26T05:50:53.813Z,56.55
2018-09-26T05:51:53.669Z,56.26
2018-09-26T05:52:53.679Z,56.74
2018-09-26T05:53:53.701Z,57.22
2018-09-26T05:54:53.705Z,57.13
2018-09-26T05:55:53.886Z,57.03
2018-09-26T05:56:53.748Z,57.32
2018-09-26T05:57:53.762Z,57.51
2018-09-26T05:58:53.773Z,57.42
2018-09-26T05:59:53.779Z,57.51
2018-09-26T06:00:54.055Z,57.42
2018-09-26T06:01:53.809Z,56.93
2018-09-26T06:02:53.840Z,57.13
2018-09-26T06:03:53.853Z,57.03
2018-09-26T06:04:53.850Z,57.03
2018-09-26T06:05:54.029Z,56.65
2018-09-26T06:06:53.878Z,56.65
2018-09-26T06:07:53.902Z,56.16
2018-09-26T06:08:53.908Z,56.55
2018-09-26T06:09:53.924Z,56.55
2018-09-26T06:10:54.196Z,56.65
2018-09-26T06:11:53.967Z,56.65
2018-09-26T06:12:53.980Z,57.03
2018-09-26T06:13:53.981Z,57.22
2018-09-26T06:14:54.007Z,57.42
2018-09-26T06:15:54.173Z,57.22
2018-09-26T06:16:54.035Z,57.60
2018-09-26T06:17:54.048Z,57.70
2018-09-26T06:18:54.185Z,58.09
2018-09-26T06:19:54.122Z,58.47
2018-09-26T06:20:54.241Z,57.70
2018-09-26T06:21:54.163Z,58.57
2018-09-26T06:22:54.107Z,58.28
2018-09-26T06:23:54.138Z,58.57
2018-09-26T06:24:54.159Z,58.76
2018-09-26T06:25:54.258Z,58.76
2018-09-26T06:26:54.174Z,58.95
2018-09-26T06:27:54.191Z,59.34
2018-09-26T06:28:54.197Z,59.53
2018-09-26T06:29:54.227Z,59.82
2018-09-26T06:30:54.382Z,59.92
2018-09-26T06:31:54.247Z,59.44
2018-09-26T06:32:54.267Z,59.53
2018-09-26T06:33:54.267Z,59.34
2018-09-26T06:34:54.299Z,59.05
2018-09-26T06:35:54.402Z,58.86
2018-09-26T06:36:54.318Z,59.05
2018-09-26T06:37:54.325Z,58.86
2018-09-26T06:38:54.363Z,58.86
2018-09-26T06:39:54.371Z,59.05
2018-09-26T06:40:54.528Z,59.15
2018-09-26T06:41:54.400Z,58.95
2018-09-26T06:42:54.405Z,59.15
2018-09-26T06:43:54.426Z,58.95
2018-09-26T06:44:54.432Z,59.05
2018-09-26T06:45:54.626Z,58.95
2018-09-26T06:46:54.470Z,58.76
2018-09-26T06:47:54.471Z,58.57
2018-09-26T06:48:54.508Z,58.28
2018-09-26T06:49:54.514Z,58.57
2018-09-26T06:50:54.520Z,58.28
2018-09-26T06:51:54.635Z,57.99
2018-09-26T06:52:54.556Z,58.37
2018-09-26T06:53:54.590Z,57.80
2018-09-26T06:54:54.588Z,57.70
2018-09-26T06:55:54.607Z,57.70
2018-09-26T06:56:54.767Z,58.18
2018-09-26T06:57:54.631Z,58.18
2018-09-26T06:58:54.636Z,58.47
2018-09-26T06:59:54.661Z,58.67
2018-09-26T07:00:54.672Z,58.67
2018-09-26T07:01:54.776Z,58.86
2018-09-26T07:02:54.704Z,58.57
2018-09-26T07:03:54.726Z,58.67
2018-09-26T07:04:54.734Z,58.95
2018-09-26T07:05:54.752Z,59.05
2018-09-26T07:06:54.917Z,59.44
2018-09-26T07:07:54.770Z,59.34
2018-09-26T07:08:54.782Z,59.72
2018-09-26T07:09:54.790Z,59.44
2018-09-26T07:10:54.821Z,60.01
2018-09-26T07:11:54.934Z,60.49
2018-09-26T07:12:54.840Z,60.30
2018-09-26T07:13:54.856Z,60.30
2018-09-26T07:14:54.876Z,60.01
2018-09-26T07:15:54.894Z,59.72
2018-09-26T07:16:55.042Z,59.34
2018-09-26T07:17:54.926Z,58.86
2018-09-26T07:18:54.939Z,58.28
2018-09-26T07:19:54.943Z,58.28
2018-09-26T07:20:54.968Z,58.47
2018-09-26T07:21:55.232Z,58.47
2018-09-26T07:22:54.998Z,58.67
2018-09-26T07:23:55.044Z,58.28
2018-09-26T07:24:55.020Z,58.76
2018-09-26T07:25:55.043Z,58.76
2018-09-26T07:26:55.308Z,58.76
2018-09-26T07:27:55.052Z,58.67
2018-09-26T07:28:55.076Z,59.15
2018-09-26T07:29:55.101Z,58.86
2018-09-26T07:30:55.098Z,58.57
2018-09-26T07:31:55.231Z,58.57
2018-09-26T07:32:55.141Z,58.57
2018-09-26T07:33:55.161Z,58.47
2018-09-26T07:34:55.163Z,59.44
2018-09-26T07:35:55.189Z,59.22
2018-09-26T07:36:55.352Z,59.15
2018-09-26T07:37:55.205Z,59.15
2018-09-26T07:38:55.229Z,58.95
2018-09-26T07:39:55.244Z,59.53
2018-09-26T07:40:55.257Z,59.63
2018-09-26T07:41:55.414Z,59.05
2018-09-26T07:42:55.278Z,58.95
2018-09-26T07:43:55.300Z,59.05
2018-09-26T07:44:55.315Z,58.67
2018-09-26T07:45:55.417Z,59.05
2018-09-26T07:46:55.480Z,59.05
2018-09-26T07:47:55.363Z,59.12
2018-09-26T07:48:55.377Z,59.15
2018-09-26T07:49:55.389Z,59.02
2018-09-26T07:50:55.402Z,59.02
2018-09-26T07:51:55.570Z,59.22
2018-09-26T07:52:55.486Z,59.50
2018-09-26T07:53:55.448Z,59.79
2018-09-26T07:54:55.447Z,59.69
2018-09-26T07:55:55.468Z,59.50
2018-09-26T07:56:55.490Z,59.72
2018-09-26T07:57:55.658Z,59.72
2018-09-26T07:58:55.502Z,59.69
2018-09-26T07:59:55.562Z,60.11
2018-09-26T08:00:55.547Z,59.92
2018-09-26T08:01:55.571Z,59.89
2018-09-26T08:02:55.761Z,59.69
2018-09-26T08:03:55.578Z,59.72
2018-09-26T08:04:55.589Z,60.01
2018-09-26T08:05:55.676Z,59.79
2018-09-26T08:06:55.631Z,60.01
2018-09-26T08:07:55.786Z,59.89
2018-09-26T08:08:55.651Z,59.89
2018-09-26T08:09:55.683Z,60.30
2018-09-26T08:10:55.685Z,60.37
2018-09-26T08:11:55.691Z,60.11
2018-09-26T08:12:55.859Z,60.27
2018-09-26T08:13:55.732Z,60.08
2018-09-26T08:14:55.754Z,60.27
2018-09-26T08:15:55.766Z,60.21
2018-09-26T08:16:55.769Z,60.59
2018-09-26T08:17:55.940Z,59.99
2018-09-26T08:19:15.001Z,60.30
2018-09-26T08:19:55.822Z,59.82
2018-09-26T08:20:55.832Z,59.92
2018-09-26T08:21:55.837Z,60.30
2018-09-26T08:22:56.012Z,60.21
2018-09-26T08:23:55.918Z,60.01
2018-09-26T08:24:55.883Z,60.39
2018-09-26T08:25:55.900Z,60.49
2018-09-26T08:26:55.919Z,60.21
2018-09-26T08:27:56.068Z,60.21
2018-09-26T08:28:55.939Z,60.21
2018-09-26T08:29:56.033Z,60.11
2018-09-26T08:30:55.975Z,60.39
2018-09-26T08:31:55.996Z,60.49
2018-09-26T08:32:56.138Z,60.11
2018-09-26T08:33:56.007Z,60.11
2018-09-26T08:34:56.026Z,60.30
2018-09-26T08:35:56.036Z,60.21
2018-09-26T08:36:56.064Z,60.49
2018-09-26T08:37:56.174Z,60.30
2018-09-26T08:38:56.089Z,60.21
2018-09-26T08:39:56.104Z,59.92
2018-09-26T08:40:56.107Z,60.11
2018-09-26T08:41:56.122Z,60.59
2018-09-26T08:42:56.803Z,60.11
2018-09-26T08:43:56.183Z,60.21
2018-09-26T08:44:56.168Z,60.88
2018-09-26T08:45:56.187Z,61.26
2018-09-26T08:46:56.192Z,60.97
2018-09-26T08:47:56.321Z,61.26
2018-09-26T08:48:56.766Z,60.78
2018-09-26T08:49:56.247Z,61.16
2018-09-26T08:50:56.249Z,61.36
2018-09-26T08:51:56.275Z,61.26
2018-09-26T08:52:56.432Z,61.16
2018-09-26T08:53:56.818Z,61.74
2018-09-26T08:54:56.305Z,61.36
2018-09-26T08:55:56.336Z,61.26
2018-09-26T08:56:56.340Z,61.16
2018-09-26T08:57:56.503Z,61.46
2018-09-26T08:58:56.379Z,61.07
2018-09-26T08:59:56.390Z,61.36
2018-09-26T09:00:56.936Z,61.55
2018-09-26T09:01:56.938Z,61.26
2018-09-26T09:02:56.436Z,61.26
2018-09-26T09:03:56.589Z,61.55
2018-09-26T09:04:56.466Z,61.26
2018-09-26T09:05:56.474Z,61.07
2018-09-26T09:06:56.690Z,61.55
2018-09-26T09:07:56.508Z,61.46
2018-09-26T09:08:56.524Z,61.55
2018-09-26T09:09:56.677Z,61.46
2018-09-26T09:10:56.543Z,61.36
2018-09-26T09:11:57.300Z,61.16
2018-09-26T09:12:56.579Z,60.59
2018-09-26T09:13:56.598Z,61.55
2018-09-26T09:14:56.709Z,61.65
2018-09-26T09:15:56.621Z,61.07
2018-09-26T09:16:56.627Z,61.46
2018-09-26T09:17:56.767Z,61.55
2018-09-26T09:18:56.652Z,61.74
2018-09-26T09:19:56.773Z,61.84
2018-09-26T09:20:56.687Z,61.55
2018-09-26T09:21:56.703Z,61.94
2018-09-26T09:22:56.716Z,62.41
2018-09-26T09:23:56.729Z,62.03
2018-09-26T09:24:56.854Z,62.13
2018-09-26T09:25:56.763Z,62.32
2018-09-26T09:26:56.797Z,62.32
2018-09-26T09:27:57.318Z,62.32
2018-09-26T09:28:56.800Z,61.65
2018-09-26T09:29:56.913Z,61.46
2018-09-26T09:30:56.831Z,61.46
2018-09-26T09:31:56.889Z,61.46
2018-09-26T09:32:56.858Z,61.46
2018-09-26T09:33:56.894Z,61.36
2018-09-26T09:34:57.053Z,61.84
2018-09-26T09:35:56.904Z,61.65
2018-09-26T09:36:56.926Z,61.55
2018-09-26T09:37:56.943Z,62.23
2018-09-26T09:38:56.946Z,61.36
2018-09-26T09:39:57.068Z,62.13
2018-09-26T09:40:56.994Z,62.41
2018-09-26T09:41:56.994Z,61.55
2018-09-26T09:42:57.005Z,61.55
2018-09-26T09:43:57.564Z,61.74
2018-09-26T09:44:57.135Z,61.46
2018-09-26T09:45:57.058Z,61.36
2018-09-26T09:46:57.072Z,61.36
2018-09-26T09:47:57.091Z,61.84
2018-09-26T09:48:57.106Z,61.46
2018-09-26T09:49:57.212Z,61.26
2018-09-26T09:50:57.137Z,61.74
2018-09-26T09:51:57.155Z,61.68
2018-09-26T09:52:57.165Z,61.77
2018-09-26T09:53:57.172Z,61.49
2018-09-26T09:54:57.310Z,61.46
2018-09-26T09:55:57.195Z,61.19
2018-09-26T09:56:57.231Z,61.46
2018-09-26T09:57:57.239Z,61.49
2018-09-26T09:58:57.757Z,61.10
2018-09-26T09:59:57.886Z,61.29
2018-09-26T10:00:57.282Z,61.10
2018-09-26T10:01:57.296Z,61.49
2018-09-26T10:02:57.448Z,61.87
2018-09-26T10:03:57.323Z,61.39
2018-09-26T10:04:57.495Z,61.36
2018-09-26T10:05:57.862Z,61.49
2018-09-26T10:06:57.360Z,62.26
2018-09-26T10:07:57.385Z,62.13
2018-09-26T10:08:57.401Z,62.35
2018-09-26T10:09:57.402Z,62.45
2018-09-26T10:10:57.518Z,61.19
2018-09-26T10:11:57.961Z,61.68
2018-09-26T10:12:57.452Z,61.49
2018-09-26T10:13:57.462Z,61.58
2018-09-26T10:14:57.492Z,61.49
2018-09-26T10:15:57.497Z,61.10
2018-09-26T10:16:58.191Z,61.29
2018-09-26T10:17:58.055Z,61.19
2018-09-26T10:18:57.558Z,60.52
2018-09-26T10:19:57.553Z,60.62
2018-09-26T10:20:57.579Z,60.62
2018-09-26T10:21:57.745Z,59.56
2018-09-26T10:22:57.613Z,59.85
2018-09-26T10:23:57.617Z,59.56
2018-09-26T10:24:57.644Z,60.04
2018-09-26T10:25:57.674Z,59.66
2018-09-26T10:26:57.829Z,59.40
2018-09-26T10:27:57.681Z,59.59
2018-09-26T10:28:57.695Z,58.82
2018-09-26T10:29:58.237Z,58.63
2018-09-26T10:30:58.448Z,59.20
2018-09-26T10:31:58.418Z,58.92
2018-09-26T10:32:57.764Z,58.15
2018-09-26T10:33:57.775Z,58.44
2018-09-26T10:34:57.864Z,57.67
2018-09-26T10:35:58.349Z,57.31
2018-09-26T10:36:58.466Z,56.82
2018-09-26T10:37:58.766Z,56.90
2018-09-26T10:38:58.385Z,56.82
2018-09-26T10:39:57.858Z,56.80
2018-09-26T10:40:58.084Z,55.74
2018-09-26T10:41:58.658Z,55.96
2018-09-26T10:42:58.476Z,56.25
2018-09-26T10:43:58.344Z,56.73
2018-09-26T10:44:58.495Z,56.73
2018-09-26T10:45:57.964Z,56.82
2018-09-26T10:46:59.149Z,55.60
2018-09-26T10:47:58.004Z,54.25
2018-09-26T10:48:58.004Z,54.16
2018-09-26T10:49:58.454Z,53.29
2018-09-26T10:50:58.038Z,53.29
2018-09-26T10:51:58.160Z,53.00
2018-09-26T10:52:58.602Z,52.23
2018-09-26T10:55:42.745Z,52.71
2018-09-26T10:56:43.336Z,52.81
2018-09-26T10:57:43.434Z,52.61
2018-09-26T10:58:43.323Z,52.91
2018-09-26T10:59:43.325Z,52.61
2018-09-26T11:00:42.823Z,51.94
2018-09-26T11:01:43.278Z,52.81
2018-09-26T11:02:43.194Z,52.61
2018-09-26T11:03:43.395Z,53.00
2018-09-26T11:04:49.684Z,52.61
2018-09-26T11:05:42.889Z,52.81
2018-09-26T11:06:43.451Z,53.09
2018-09-26T11:08:43.573Z,53.29
2018-09-26T11:09:42.969Z,53.80
2018-09-26T11:10:42.981Z,52.64
2018-09-26T11:11:43.203Z,51.68
2018-09-26T11:12:43.653Z,51.77
2018-09-26T11:13:43.650Z,50.93
2018-09-26T11:14:43.261Z,51.03
2018-09-26T11:15:43.601Z,50.45
2018-09-26T11:16:43.098Z,50.64
2018-09-26T11:17:43.110Z,50.35
2018-09-26T11:18:43.983Z,49.00
2018-09-26T11:19:43.672Z,48.61
2018-09-26T11:20:43.674Z,48.52
2018-09-26T11:21:43.695Z,48.61
2018-09-26T11:22:43.731Z,49.12
2018-09-26T11:23:43.887Z,48.64
2018-09-26T11:24:43.230Z,47.38
2018-09-26T11:25:43.989Z,48.06
2018-09-26T11:26:43.318Z,47.77
2018-09-26T11:27:43.719Z,46.71
2018-09-26T11:28:43.986Z,46.42
2018-09-26T11:29:43.323Z,46.90
2018-09-26T11:30:43.338Z,47.02
2018-09-26T11:31:43.880Z,46.23
2018-09-26T11:32:44.182Z,45.96
2018-09-26T11:33:43.602Z,45.86
2018-09-26T11:34:43.409Z,45.67
2018-09-26T11:35:43.939Z,46.15
2018-09-26T11:36:43.424Z,45.28
2018-09-26T11:37:43.460Z,45.48
2018-09-26T11:38:43.476Z,44.90
2018-09-26T11:39:43.634Z,45.28
2018-09-26T11:40:44.055Z,45.40
2018-09-26T11:41:43.535Z,44.53
2018-09-26T11:43:30.010Z,43.85
2018-09-26T11:43:43.559Z,44.05
2018-09-26T11:45:44.234Z,43.76
2018-09-26T11:46:44.533Z,43.20
2018-09-26T11:47:44.167Z,43.01
2018-09-26T11:48:44.179Z,42.91
2018-09-26T11:49:44.713Z,42.24
2018-09-26T11:50:44.534Z,42.25
2018-09-26T11:51:44.659Z,42.16
2018-09-26T11:52:44.256Z,41.09
2018-09-26T11:53:43.947Z,41.29
2018-09-26T11:54:44.300Z,41.67
2018-09-26T11:55:44.369Z,41.77
2018-09-26T11:56:44.331Z,41.29
2018-09-26T11:57:43.823Z,40.92
2018-09-26T11:58:43.845Z,40.81
2018-09-26T11:59:43.849Z,40.63
2018-09-26T12:00:44.556Z,39.86
2018-09-26T12:02:18.346Z,40.25
2018-09-26T12:02:44.620Z,40.05
2018-09-26T12:03:44.853Z,40.05
2018-09-26T12:04:44.152Z,39.76
2018-09-26T12:05:44.649Z,39.57
2018-09-26T12:06:43.981Z,39.97
2018-09-26T12:07:45.046Z,38.71
2018-09-26T12:08:44.057Z,38.54
2018-09-26T12:09:44.781Z,38.53
2018-09-26T12:10:44.729Z,38.64
2018-09-26T12:11:44.608Z,37.96
2018-09-26T12:13:03.306Z,37.67
2018-09-26T12:13:44.657Z,37.57
2018-09-26T12:14:44.660Z,37.11
2018-09-26T12:15:44.449Z,36.43
2018-09-26T12:16:44.707Z,36.33
2018-09-26T12:25:56.147Z,35.67
2018-09-26T12:26:42.787Z,34.41
2018-09-26T12:27:43.487Z,34.22
2018-09-26T12:28:43.944Z,33.73
2018-09-26T12:29:43.449Z,34.02
2018-09-26T12:31:02.674Z,33.84
2018-09-26T12:31:43.264Z,35.38
2018-09-26T12:32:42.972Z,35.01
2018-09-26T12:33:43.405Z,34.99
2018-09-26T12:34:43.447Z,34.62
2018-09-26T12:35:43.344Z,34.23
2018-09-26T12:36:42.943Z,34.04
2018-09-26T12:38:43.805Z,34.04
2018-09-26T12:39:43.638Z,34.53
2018-09-26T12:40:43.016Z,35.41
2018-09-26T12:42:09.604Z,35.32
2018-09-26T12:42:43.816Z,33.96
2018-09-26T12:43:43.765Z,32.70
2018-09-26T12:44:43.105Z,32.81
2018-09-26T12:45:43.651Z,32.52
2018-09-26T12:46:43.584Z,31.85
2018-09-26T12:47:43.169Z,30.88
2018-09-26T12:48:43.905Z,30.59
2018-09-26T12:49:43.204Z,31.55
2018-09-26T12:50:43.743Z,31.84
2018-09-26T12:51:43.994Z,33.11
2018-09-26T12:53:29.288Z,32.04
2018-09-26T12:53:44.048Z,31.57
2018-09-26T12:55:17.051Z,30.50
2018-09-26T12:55:43.323Z,30.71
2018-09-26T12:56:44.300Z,29.54
2018-09-26T12:58:03.124Z,29.54
2018-09-26T12:58:44.090Z,29.05
2018-09-26T12:59:43.625Z,28.86
2018-09-26T13:00:44.358Z,28.86
2018-09-26T13:01:43.988Z,28.39
2018-09-26T13:02:43.744Z,28.78
2018-09-26T13:05:44.214Z,27.90
2018-09-26T13:06:44.076Z,28.11
2018-09-26T13:07:43.617Z,28.11